logo
App data

Gnomes Garden 2

Gnomes Garden 2 – the sequel to an exciting fantasy strategy game. Restore the magical gardens and defeat the troll queen!
Store | Hub | SteamDB | Site
Developer: Jerzie, Creobit Publisher: 8Floor
Genre: Casual, Strategy
Languages: English, French, German, Russian
Tags: Strategy (24), Casual (24), Time Management (9)
Category: Single-player, Steam Achievements, Steam Trading Cards, Steam Cloud
Release date: May 18, 2016
Price: $4.99
Owners: 20,000 .. 50,000
Followers: 133
Peak concurrent players yesterday: 2
YouTube stats: 1,144 views and 0 comments for videos uploaded last week, 0 new videos uploaded yesterday.
Playtime in the last 2 weeks: 11:46 (average) 11:46 (median)
Playtime total: 05:24 (average) 04:35 (median)

Steam Spy is still in beta, so expect major bugs.

Owners data:

Access restricted.

This feature is only available to users with special access rights. Sorry.

If you want to proceed, you need to register or log in first and then back Steam Spy on Patreon. Look for Indie or Pro pledge.

Don't forget to use the same email as on Steam Spy!

Audience in 2 weeks:

Access restricted.

This feature is only available to users with special access rights. Sorry.

If you want to proceed, you need to register or log in first and then back Steam Spy on Patreon. Look for Indie or Pro pledge.

Don't forget to use the same email as on Steam Spy!

Peak daily concurrent players:

CCU data courtesy of SteamDB. Used with permission.

Hourly concurrent players:

YouTube:

The views data is based on top 50 videos uploaded last week. Actual number of views might be more than the number shown.

The displayed number of videos uploaded yesterday is limited to 50, so if there were more videos uploaded, the number will still show 50.

If the game has commonly used word as its name (like "FEAR" or "Volume") its number of Youtube views might be wrong.

Games similar to this one:

# Game Release date
Price
Score rank
(Userscore / Metascore)
Owners
Players
Playtime (Median)
1 Flowers -Le volume sur printemps- Aug 17, 2016 $19.9997% (97%)0 .. 20,0000%00:00 (00:00)
2 Lost Lands: The Four Horsemen Jul 14, 2015 $6.9995% (96%)0 .. 20,0000%00:00 (00:00)
3 Eventide: Slavic Fable Jan 28, 2016 $9.9995% (96%)50,000 .. 100,0000%00:00 (00:00)
4 Legends of Atlantis: Exodus Sep 3, 2015 $6.99N/A (N/A)0 .. 20,0000%00:00 (00:00)
5 Peggle Nights Oct 15, 2008 $4.9990% (94%/76%)200,000 .. 500,0001.02%00:28 (00:18)
6 Farm Frenzy 2 Aug 27, 2008 $4.99N/A (N/A)0 .. 20,0000%00:00 (00:00)
7 Putt-Putt and Pep's Balloon-o-Rama Apr 17, 2014 $4.99N/A (N/A)0 .. 20,0000%00:00 (00:00)
8 Chuzzle Deluxe Aug 30, 2006 $4.9984% (92%)50,000 .. 100,0000%00:00 (00:00)
9 Princess Maker 2 Refine Sep 28, 2016 $19.9984% (92%)20,000 .. 50,0000%00:00 (00:00)
10 YOU DON’T KNOW JACK Feb 8, 2011 N/A84% (92%/71%)0 .. 20,0000%00:00 (00:00)
11 Kitty Cat: Jigsaw Puzzles Jul 18, 2016 $0.9980% (91%)50,000 .. 100,0000%00:00 (00:00)
12 Hidden Object Bundle 4 in 1 Oct 6, 2015 $7.9980% (91%)20,000 .. 50,0001.69%00:27 (00:09)
13 Grim Legends 3: The Dark City Jun 2, 2016 $9.9977% (90%)20,000 .. 50,0001.05%01:30 (00:30)
14 Super Jagua Sep 15, 2016 $0.9977% (90%)0 .. 20,0000%00:00 (00:00)
15 Alice's Patchwork Mar 3, 2016 $4.9974% (89%)20,000 .. 50,0000%00:00 (00:00)
16 Luxor 3 Nov 13, 2007 $9.9971% (88%)20,000 .. 50,0000%00:00 (00:00)
17 Stikbold! A Dodgeball Adventure Apr 1, 2016 $9.9971% (88%)50,000 .. 100,0000%00:00 (00:00)
18 Shufflepuck Cantina Deluxe Dec 6, 2013 $9.9971% (88%)100,000 .. 200,0000.2%03:56 (01:18)
19 Puzzler World May 28, 2010 $4.9971% (88%)50,000 .. 100,0000%00:00 (00:00)
20 Delicious! Pretty Girls Mahjong Solitaire Oct 14, 2016 $0.9969% (87%)50,000 .. 100,0001.83%04:49 (04:48)
21 Burnout Paradise: The Ultimate Box Feb 3, 2009 $19.9969% (87%/87%)1,000,000 .. 2,000,0000.73%02:01 (01:01)
22 Lost Grimoires: Stolen Kingdom Nov 10, 2016 $9.9966% (86%)0 .. 20,0000%00:00 (00:00)
23 Brink of Consciousness: The Lonely Hearts Murders Nov 24, 2014 $9.9963% (85%)0 .. 20,0000%00:00 (00:00)
24 SimpleRockets Jun 3, 2015 $7.9963% (85%)20,000 .. 50,0000%00:00 (00:00)
25 Space Codex May 17, 2016 $0.9961% (84%)100,000 .. 200,0000.35%00:36 (00:12)
26 Hidden Object 6-in-1 bundle Mar 16, 2016 $11.9961% (84%)20,000 .. 50,0000%00:00 (00:00)
27 House of Snark 6-in-1 Bundle Jul 20, 2016 $11.99N/A (N/A)0 .. 20,0000%00:00 (00:00)
28 LUXOR: Mah Jong Jul 13, 2009 $9.99N/A (N/A)50,000 .. 100,0000%00:00 (00:00)
29 Little Racers STREET Feb 6, 2014 $5.9961% (84%/62%)100,000 .. 200,0001.16%00:36 (00:46)
30 My Riding Stables: Life with Horses Mar 27, 2014 $14.9958% (83%)0 .. 20,0000%00:00 (00:00)
31 Gnomes Garden Dec 18, 2015 $4.9958% (83%)50,000 .. 100,0000.38%11:45 (03:55)
32 LogicBots Feb 8, 2017 $19.9954% (81%)0 .. 20,0000%00:00 (00:00)
33 Rotastic Oct 11, 2012 $9.99N/A (N/A)0 .. 20,0000%00:00 (00:00)
34 Combat Wings: Battle of Britain Oct 14, 2009 $4.9952% (80%)100,000 .. 200,0000%00:00 (00:00)
35 7 Wonders: Treasures of Seven Nov 14, 2008 $9.99N/A (N/A)20,000 .. 50,0000%00:00 (00:00)
36 Crash Dive Jul 6, 2015 $6.9952% (80%)0 .. 20,0000%00:00 (00:00)
37 Rube Works: The Official Rube Goldberg Invention Game Apr 22, 2014 $4.99N/A (N/A)0 .. 20,0000%00:00 (00:00)
38 The Wizard's Pen Feb 18, 2009 $4.99N/A (N/A)20,000 .. 50,0000%00:00 (00:00)
39 Sea Legends: Phantasmal Light Collector's Edition Sep 17, 2014 $4.9949% (79%)50,000 .. 100,0000%00:00 (00:00)
40 Steel Armor: Blaze of War Mar 5, 2015 $29.9949% (79%/70%)0 .. 20,0000%00:00 (00:00)
41 Qvadriga Jun 13, 2014 $19.9949% (79%/72%)20,000 .. 50,0000%00:00 (00:00)
42 Buzz Aldrin's Space Program Manager Oct 31, 2014 $29.9947% (78%/62%)0 .. 20,0000%00:00 (00:00)
43 Echelon: Wind Warriors Aug 8, 2014 $3.9947% (78%/63%)0 .. 20,0000%00:00 (00:00)
44 Typer Shark! Deluxe Aug 30, 2006 $4.9946% (77%)20,000 .. 50,0000%00:00 (00:00)
45 Mystery Case Files: Madame Fate Dec 14, 2007 $6.99N/A (N/A)0 .. 20,0000%00:00 (00:00)
46 Toilet Tycoon Sep 17, 2015 $4.9942% (75%)0 .. 20,0000%00:00 (00:00)
47 Amazing Adventures Around the World Sep 17, 2008 $4.99N/A (N/A)20,000 .. 50,0000%00:00 (00:00)
48 Teddy Floppy Ear - The Race May 22, 2015 $4.9940% (74%)100,000 .. 200,0000.53%00:09 (00:06)
49 Ski Region Simulator - Gold Edition Jan 31, 2014 $8.9938% (73%)20,000 .. 50,0000%00:00 (00:00)
50 Evolution Planet: Gold Edition Jul 7, 2016 $4.99N/A (N/A)0 .. 20,0000%00:00 (00:00)
51 Cake Mania Collection Jul 17, 2009 $14.99N/A (N/A)0 .. 20,0000%00:00 (00:00)
52 StuntMANIA Reloaded Nov 13, 2014 $4.9936% (72%)20,000 .. 50,0000%00:00 (00:00)
53 Amazing Adventures The Lost Tomb Nov 5, 2007 $4.99N/A (N/A)20,000 .. 50,0000%00:00 (00:00)
54 Democracy 3 Africa Apr 12, 2016 $14.9935% (71%)50,000 .. 100,0002.86%00:15 (00:05)
55 Football Mogul 2014 May 28, 2015 $0.99N/A (N/A)20,000 .. 50,0000%00:00 (00:00)
56 IL-2 Sturmovik: Battle of Stalingrad Oct 22, 2014 $49.9933% (70%/74%)50,000 .. 100,0004.17%01:54 (01:03)
57 Splendor Sep 17, 2015 $9.9931% (69%)0 .. 20,0000%00:00 (00:00)
58 MiniDrivers Aug 31, 2015 $5.9931% (69%)20,000 .. 50,0000%00:00 (00:00)
59 Little Farm Jun 10, 2008 $9.9930% (68%)20,000 .. 50,0000%00:00 (00:00)
60 Chocolatier: Decadence by Design Aug 12, 2009 $9.9930% (68%)0 .. 20,0000%00:00 (00:00)
61 Chronicle Keepers: The Dreaming Garden Jun 11, 2015 $4.9930% (68%)0 .. 20,0000%00:00 (00:00)
62 Twisted Lands Trilogy: Collector's Edition Oct 28, 2015 $19.9927% (66%)20,000 .. 50,0000%00:00 (00:00)
63 Farming 6-in-1 bundle Jun 2, 2016 $5.99N/A (N/A)0 .. 20,0000%00:00 (00:00)
64 Eagle Flight Dec 20, 2016 $19.9926% (65%/74%)0 .. 20,0000%00:00 (00:00)
65 Obliteracers Feb 23, 2016 $14.9926% (65%/78%)20,000 .. 50,0000%00:00 (00:00)
66 Castle: Never Judge a Book by its Cover Jun 9, 2014 N/A24% (64%)20,000 .. 50,0000%00:00 (00:00)
67 Mahjong Pretty Girls Battle : School Girls Edition Jun 22, 2015 $14.9924% (64%)20,000 .. 50,0000.78%05:04 (01:41)
68 Pro Cycling Manager 2014 Jun 19, 2014 $9.9924% (64%)20,000 .. 50,0000%00:00 (00:00)
69 City Life 2008 Jul 18, 2008 $9.9924% (64%)20,000 .. 50,0000%00:00 (00:00)
70 PAC-MAN CHAMPIONSHIP EDITION 2 Sep 13, 2016 $12.9923% (63%)50,000 .. 100,0000.97%14:40 (04:53)
71 Solitaire Christmas. Match 2 Cards Dec 24, 2015 $4.9922% (62%)20,000 .. 50,0000.95%04:31 (03:00)
72 Aerofly FS 1 Flight Simulator Oct 17, 2012 $19.9922% (62%)0 .. 20,0000%00:00 (00:00)
73 Railroad Pioneer Jul 1, 2014 $4.9922% (62%/50%)0 .. 20,0000%00:00 (00:00)
74 Meridian: Age of Invention Sep 30, 2015 $2.9921% (61%)20,000 .. 50,0000%00:00 (00:00)
75 Gems of the Aztecs Apr 22, 2016 $4.9921% (61%)50,000 .. 100,0000.75%167:05 (111:23)
76 Trackmania Turbo Mar 24, 2016 $19.9921% (61%)50,000 .. 100,0001.82%00:23 (00:07)
77 Zooloretto Apr 3, 2014 $2.99N/A (N/A)0 .. 20,0000%00:00 (00:00)
78 Contract With The Devil Dec 11, 2015 $4.9920% (60%)20,000 .. 50,0000.78%06:03 (03:49)
79 Football Club Simulator - FCS 18 Mar 4, 2016 $9.9517% (58%)0 .. 20,0000%00:00 (00:00)
80 Hacker Evolution: Untold Sep 14, 2010 $4.9917% (58%)200,000 .. 500,0000.15%00:41 (00:13)
81 Chess Knight 2 Sep 11, 2016 $2.9916% (57%)50,000 .. 100,0000%00:00 (00:00)
82 Trackday Manager Mar 31, 2016 N/A16% (56%)0 .. 20,0000%00:00 (00:00)
83 Mystery Masters: Psycho Train Deluxe Edition Feb 3, 2015 $9.9916% (56%)20,000 .. 50,0000%00:00 (00:00)
84 Cities XL Platinum Feb 6, 2013 $9.9915% (55%)200,000 .. 500,0000.2%00:02 (00:00)
85 Riding Star - Horse Championship! Mar 27, 2014 $9.99N/A (N/A)0 .. 20,0000%00:00 (00:00)
86 Ant Queen Jun 17, 2016 $3.9914% (54%)0 .. 20,0000%00:00 (00:00)
87 Pacific Storm Allies May 25, 2007 $7.9913% (53%/60%)50,000 .. 100,0000%00:00 (00:00)
88 My Best Friends - Cats & Dogs Mar 27, 2014 $14.99N/A (N/A)0 .. 20,0000%00:00 (00:00)
89 Luxor: Quest for the Afterlife Dec 15, 2008 $9.99N/A (N/A)20,000 .. 50,0000%00:00 (00:00)
90 My Riding Stables: Your Horse world Mar 28, 2014 $14.99N/A (N/A)0 .. 20,0000%00:00 (00:00)
91 Ludo Supremo Jun 8, 2016 $1.9911% (50%)20,000 .. 50,0000%00:00 (00:00)
92 300 Dwarves Jun 5, 2014 $6.9911% (49%)0 .. 20,0000%00:00 (00:00)
93 Shadows: Price For Our Sins Bonus Edition Oct 24, 2013 $9.9911% (49%)50,000 .. 100,0000%00:00 (00:00)
94 Pure Pool Jul 31, 2014 $9.9910% (48%/68%)0 .. 20,0000%00:00 (00:00)
95 Ghost Encounters: Deadwood - Collector's Edition Mar 13, 2015 $4.9910% (47%)0 .. 20,0000%00:00 (00:00)
96 Lords of Football Apr 5, 2013 $14.999% (46%/52%)20,000 .. 50,0000%00:00 (00:00)
97 Transport Giant Sep 5, 2014 $9.999% (45%)100,000 .. 200,0000%00:00 (00:00)
98 Professional Farmer 2014 Nov 27, 2013 $14.999% (45%)200,000 .. 500,0000%00:00 (00:00)
99 Silent Hunter 5: Battle of the Atlantic Mar 2010 $9.997% (40%/62%)50,000 .. 100,0000%00:00 (00:00)
100 Echelon Jul 3, 2014 $3.996% (39%/70%)0 .. 20,0000%00:00 (00:00)
101 Airport Firefighters - The Simulation May 13, 2015 $14.995% (36%)20,000 .. 50,0000%00:00 (00:00)
102 Princess Isabella: The Rise of an Heir May 12, 2016 $9.995% (36%)0 .. 20,0002%04:02 (01:20)
103 Industry Empire Jul 30, 2014 $19.994% (31%)20,000 .. 50,0000%00:00 (00:00)
104 Fill Up! Feb 17, 2016 $2.99N/A (N/A)0 .. 20,0000%00:00 (00:00)
105 Driving School Simulator Sep 25, 2014 $14.992% (20%)0 .. 20,0006.25%00:04 (00:01)
106 Switch Galaxy Ultra Nov 20, 2015 $9.991% (13%)20,000 .. 50,0000%00:00 (00:00)
107 Luxury Hotel Emporium Aug 7, 2015 $4.99N/A (N/A)0 .. 20,0000%00:00 (00:00)
108 Black Viper: Sophia's Fate Oct 16, 2014 $9.991% (8%)0 .. 20,0002.33%00:04 (00:01)
109 Nokori Mar 25, 2016 $1.99N/A (N/A)0 .. 20,0000%00:00 (00:00)
110 Barnyard Mahjong 3 Jul 29, 2016 $1.99N/A (N/A)50,000 .. 100,0000%00:00 (00:00)
111 Dessert Storm Oct 23, 2016 $0.99N/A (N/A)50,000 .. 100,0000.56%04:33 (01:31)
112 The Hidden Dragon Jul 26, 2016 $2.99N/A (N/A)0 .. 20,0000%00:00 (00:00)
113 Discovery! A Seek and Find Adventure Jul 29, 2008 $9.99N/A (N/A)0 .. 20,0000%00:00 (00:00)
114 Bubble Blowout Oct 24, 2016 $0.99N/A (N/A)20,000 .. 50,0000%00:00 (00:00)
115 Adventures of Robinson Crusoe Jan 9, 2015 $9.99N/A (N/A)20,000 .. 50,0000%00:00 (00:00)
116 Block Blowout Oct 26, 2016 $0.99N/A (N/A)50,000 .. 100,0000%00:00 (00:00)
117 Fantastic 4 In A Row 2 Aug 15, 2016 $0.99N/A (N/A)50,000 .. 100,0000%00:00 (00:00)
118 Escape The Past Sep 14, 2016 $4.99N/A (N/A)0 .. 20,0001.75%02:06 (00:42)
119 Rush for gold: California Mar 9, 2016 $3.99N/A (N/A)20,000 .. 50,0000%00:00 (00:00)
120 Tropical Fish Shop 2 Mar 9, 2016 $3.99N/A (N/A)0 .. 20,0000%00:00 (00:00)
121 Them - The Summoning May 16, 2014 $4.99N/A (N/A)0 .. 20,0000%00:00 (00:00)
122 My Pet Hotel Mar 27, 2014 $14.99N/A (N/A)0 .. 20,0000%00:00 (00:00)
123 Lost Legends: The Weeping Woman Collector's Edition Oct 21, 2015 $14.99N/A (N/A)20,000 .. 50,0000%00:00 (00:00)

Tags over time:

Access restricted.

This feature is only available to users with special access rights. Sorry.

If you want to proceed, you need to register or log in first and then back Steam Spy on Patreon. Look for Indie or Pro pledge.

Don't forget to use the same email as on Steam Spy!

Owners of this game also own:

Access restricted.

This feature is only available to users with special access rights. Sorry.

If you want to proceed, you need to register or log in first and then back Steam Spy on Patreon. Look for Indie or Pro pledge.

Don't forget to use the same email as on Steam Spy!

Playtime distribution:

Access restricted.

This feature is only available to users with special access rights. Sorry.

If you want to proceed, you need to register or log in first and then back Steam Spy on Patreon. Look for Indie or Pro pledge.

Don't forget to use the same email as on Steam Spy!

Playtime (2 weeks):

Access restricted.

This feature is only available to users with special access rights. Sorry.

If you want to proceed, you need to register or log in first and then back Steam Spy on Patreon. Look for Indie or Pro pledge.

Don't forget to use the same email as on Steam Spy!

User reviews:

Login required.

Please register or log in to see this information.